createdAt,value
2023-04-29T04:00:35.410Z,99.99
2023-04-29T04:01:36.411Z,99.99
2023-04-29T04:02:36.570Z,99.99
2023-04-29T04:03:36.586Z,99.99
2023-04-29T04:04:36.481Z,99.99
2023-04-29T04:05:36.328Z,99.99
2023-04-29T04:06:36.310Z,99.99
2023-04-29T04:07:36.300Z,99.99
2023-04-29T04:08:36.294Z,99.99
2023-04-29T04:09:36.277Z,99.99
2023-04-29T04:10:36.266Z,99.99
2023-04-29T04:11:36.259Z,99.99
2023-04-29T04:12:36.245Z,99.99
2023-04-29T04:13:36.237Z,99.99
2023-04-29T04:14:36.237Z,99.99
2023-04-29T04:15:36.209Z,99.99
2023-04-29T04:16:36.269Z,99.99
2023-04-29T04:17:36.229Z,99.99
2023-04-29T04:18:36.186Z,99.99
2023-04-29T04:19:36.187Z,99.99
2023-04-29T04:20:36.153Z,99.99
2023-04-29T04:21:36.145Z,99.99
2023-04-29T04:22:36.145Z,99.99
2023-04-29T04:23:36.134Z,99.99
2023-04-29T04:24:36.118Z,99.99
2023-04-29T04:25:36.093Z,99.99
2023-04-29T04:26:36.095Z,99.99
2023-04-29T04:27:36.088Z,99.99
2023-04-29T04:28:36.080Z,99.99
2023-04-29T04:29:36.065Z,99.99
2023-04-29T04:30:36.056Z,99.99
2023-04-29T04:31:36.072Z,99.99
2023-04-29T04:32:36.035Z,99.99
2023-04-29T04:33:36.036Z,99.99
2023-04-29T04:34:36.013Z,99.99
2023-04-29T04:35:36.005Z,99.99
2023-04-29T04:36:35.989Z,99.99
2023-04-29T04:37:35.967Z,99.99
2023-04-29T04:38:35.960Z,99.99
2023-04-29T04:39:35.956Z,99.99
2023-04-29T04:40:35.932Z,99.99
2023-04-29T04:41:35.932Z,99.99
2023-04-29T04:42:35.924Z,99.99
2023-04-29T04:43:35.902Z,99.99
2023-04-29T04:44:35.900Z,99.99
2023-04-29T04:45:35.915Z,99.99
2023-04-29T04:46:35.868Z,99.99
2023-04-29T04:47:35.885Z,99.99
2023-04-29T04:48:35.891Z,99.99
2023-04-29T04:49:35.835Z,99.99
2023-04-29T04:50:35.825Z,99.99
2023-04-29T04:51:35.814Z,99.99
2023-04-29T04:52:35.814Z,99.99
2023-04-29T04:53:35.797Z,99.99
2023-04-29T04:54:35.806Z,99.99
2023-04-29T04:55:35.765Z,99.99
2023-04-29T04:56:35.768Z,99.99
2023-04-29T04:57:35.747Z,99.99
2023-04-29T04:58:35.872Z,99.99
2023-04-29T04:59:35.734Z,99.99
2023-04-29T05:00:35.717Z,99.99
2023-04-29T05:01:35.766Z,99.99
2023-04-29T05:02:35.795Z,99.99
2023-04-29T05:03:35.880Z,99.99
2023-04-29T05:04:35.701Z,99.99
2023-04-29T05:05:35.649Z,99.99
2023-04-29T05:06:35.647Z,99.99
2023-04-29T05:07:35.646Z,99.99
2023-04-29T05:08:35.633Z,99.99
2023-04-29T05:09:35.624Z,99.99
2023-04-29T05:10:35.627Z,99.99
2023-04-29T05:11:35.611Z,99.99
2023-04-29T05:12:35.586Z,99.99
2023-04-29T05:13:35.566Z,99.99
2023-04-29T05:14:35.563Z,99.99
2023-04-29T05:15:35.572Z,99.99
2023-04-29T05:16:35.630Z,99.99
2023-04-29T05:17:35.577Z,99.99
2023-04-29T05:18:35.509Z,99.99
2023-04-29T05:19:35.523Z,99.99
2023-04-29T05:20:35.511Z,99.99
2023-04-29T05:21:35.498Z,99.99
2023-04-29T05:22:35.484Z,99.99
2023-04-29T05:23:35.454Z,99.99
2023-04-29T05:24:35.464Z,99.99
2023-04-29T05:25:35.429Z,99.99
2023-04-29T05:26:35.423Z,99.99
2023-04-29T05:27:35.426Z,99.99
2023-04-29T05:28:35.410Z,99.99
2023-04-29T05:29:35.399Z,99.99
2023-04-29T05:30:35.413Z,99.99
2023-04-29T05:31:35.380Z,99.99
2023-04-29T05:32:35.402Z,99.99
2023-04-29T05:33:35.363Z,99.99
2023-04-29T05:34:35.369Z,99.99
2023-04-29T05:35:35.323Z,99.99
2023-04-29T05:36:35.330Z,99.99
2023-04-29T05:37:35.309Z,99.99
2023-04-29T05:38:35.293Z,99.99
2023-04-29T05:39:35.306Z,99.99
2023-04-29T05:40:35.278Z,99.99
2023-04-29T05:41:35.258Z,99.99
2023-04-29T05:42:35.254Z,99.99
2023-04-29T05:43:36.802Z,99.99
2023-04-29T05:44:35.261Z,99.99
2023-04-29T05:45:35.204Z,99.99
2023-04-29T05:46:35.256Z,99.99
2023-04-29T05:47:35.218Z,99.99
2023-04-29T05:48:35.202Z,99.99
2023-04-29T05:49:35.563Z,99.99
2023-04-29T05:50:35.198Z,99.99
2023-04-29T05:51:35.143Z,99.99
2023-04-29T05:52:35.159Z,99.99
2023-04-29T05:53:35.179Z,99.99
2023-04-29T05:54:35.131Z,99.99
2023-04-29T05:55:35.110Z,99.99
2023-04-29T05:56:35.112Z,99.99
2023-04-29T05:57:35.080Z,99.99
2023-04-29T05:58:35.098Z,99.99
2023-04-29T05:59:35.063Z,99.99
2023-04-29T06:00:35.072Z,99.99
2023-04-29T06:01:35.044Z,99.99
2023-04-29T06:02:39.436Z,99.99
2023-04-29T06:03:35.265Z,99.99
2023-04-29T06:04:35.243Z,99.99
2023-04-29T06:05:35.539Z,99.99
2023-04-29T06:06:35.046Z,99.99
2023-04-29T06:07:35.034Z,99.99
2023-04-29T06:08:34.985Z,99.99
2023-04-29T06:09:34.952Z,99.99
2023-04-29T06:10:35.049Z,99.99
2023-04-29T06:11:34.925Z,99.99
2023-04-29T06:12:34.928Z,99.99
2023-04-29T06:13:34.923Z,99.99
2023-04-29T06:14:34.920Z,99.99
2023-04-29T06:15:34.933Z,99.99
2023-04-29T06:16:34.964Z,99.99
2023-04-29T06:17:34.885Z,99.99
2023-04-29T06:18:34.883Z,99.99
2023-04-29T06:19:34.844Z,99.99
2023-04-29T06:20:36.856Z,99.99
2023-04-29T06:21:34.833Z,99.99
2023-04-29T06:22:34.826Z,99.99
2023-04-29T06:23:34.790Z,99.99
2023-04-29T06:24:34.785Z,99.99
2023-04-29T06:25:34.809Z,99.99
2023-04-29T06:26:34.789Z,99.99
2023-04-29T06:27:34.756Z,99.99
2023-04-29T06:28:34.766Z,99.99
2023-04-29T06:29:34.729Z,99.99
2023-04-29T06:30:34.744Z,99.99
2023-04-29T06:31:34.742Z,99.99
2023-04-29T06:32:34.727Z,99.99
2023-04-29T06:33:34.687Z,99.99
2023-04-29T06:34:34.698Z,99.99
2023-04-29T06:35:34.673Z,99.99
2023-04-29T06:36:34.684Z,99.99
2023-04-29T06:37:36.443Z,99.99
2023-04-29T06:38:34.633Z,99.99
2023-04-29T06:39:34.637Z,99.99
2023-04-29T06:40:34.648Z,99.99
2023-04-29T06:41:34.599Z,99.99
2023-04-29T06:42:34.608Z,99.99
2023-04-29T06:43:34.571Z,99.99
2023-04-29T06:44:34.566Z,99.99
2023-04-29T06:45:34.571Z,99.99
2023-04-29T06:46:34.671Z,99.99
2023-04-29T06:47:34.591Z,99.99
2023-04-29T06:48:34.523Z,99.99
2023-04-29T06:49:34.507Z,99.99
2023-04-29T06:50:34.496Z,99.99
2023-04-29T06:51:34.523Z,99.99
2023-04-29T06:52:34.485Z,99.99
2023-04-29T06:53:34.467Z,99.99
2023-04-29T06:54:34.462Z,99.99
2023-04-29T06:55:34.436Z,99.99
2023-04-29T06:56:34.478Z,99.99
2023-04-29T06:57:34.453Z,99.99
2023-04-29T06:58:34.450Z,99.99
2023-04-29T06:59:34.410Z,99.99
2023-04-29T07:00:34.408Z,99.99
2023-04-29T07:01:34.413Z,99.99
2023-04-29T07:02:34.423Z,99.99
2023-04-29T07:03:34.402Z,99.99
2023-04-29T07:04:34.409Z,99.99
2023-04-29T07:05:34.362Z,99.99
2023-04-29T07:06:34.340Z,99.99
2023-04-29T07:07:34.327Z,99.99
2023-04-29T07:08:34.303Z,99.99
2023-04-29T07:09:34.303Z,99.99
2023-04-29T07:10:34.290Z,99.99
2023-04-29T07:11:34.270Z,99.99
2023-04-29T07:12:34.280Z,99.99
2023-04-29T07:13:34.314Z,99.99
2023-04-29T07:14:34.248Z,99.99
2023-04-29T07:15:34.221Z,99.99
2023-04-29T07:16:34.255Z,99.99
2023-04-29T07:17:34.306Z,99.99
2023-04-29T07:18:34.192Z,99.99
2023-04-29T07:19:34.210Z,99.99
2023-04-29T07:20:34.181Z,99.99
2023-04-29T07:21:34.189Z,99.99
2023-04-29T07:22:34.169Z,99.99
2023-04-29T07:23:34.148Z,99.99
2023-04-29T07:24:34.129Z,99.99
2023-04-29T07:25:34.159Z,99.99
2023-04-29T07:26:34.179Z,99.99
2023-04-29T07:27:34.102Z,99.99
2023-04-29T07:28:34.076Z,99.99
2023-04-29T07:29:34.091Z,99.99
2023-04-29T07:30:34.156Z,99.99
2023-04-29T07:31:35.941Z,99.99
2023-04-29T07:32:34.086Z,99.99
2023-04-29T07:33:34.035Z,99.99
2023-04-29T07:34:34.016Z,99.99
2023-04-29T07:35:34.027Z,99.99
2023-04-29T07:36:34.013Z,99.99
2023-04-29T07:37:33.999Z,99.99
2023-04-29T07:38:33.982Z,99.99
2023-04-29T07:39:33.972Z,99.99
2023-04-29T07:40:33.956Z,99.99
2023-04-29T07:41:33.936Z,99.99
2023-04-29T07:42:33.947Z,99.99
2023-04-29T07:43:33.930Z,99.99
2023-04-29T07:44:33.898Z,99.99
2023-04-29T07:45:33.908Z,99.99
2023-04-29T07:46:33.910Z,99.99
2023-04-29T07:47:33.909Z,99.99
2023-04-29T07:48:33.885Z,99.99
2023-04-29T07:49:33.874Z,99.99
2023-04-29T07:50:33.836Z,99.99
2023-04-29T07:51:33.824Z,99.99
2023-04-29T07:52:33.849Z,99.99
2023-04-29T07:53:33.836Z,99.99
2023-04-29T07:54:33.792Z,99.99
2023-04-29T07:55:33.802Z,99.99
2023-04-29T07:56:33.782Z,99.99
2023-04-29T07:57:33.779Z,99.99
2023-04-29T07:58:33.751Z,99.99
2023-04-29T07:59:33.753Z,99.99
2023-04-29T08:00:33.751Z,99.99
2023-04-29T08:01:33.744Z,99.99
2023-04-29T08:02:33.801Z,99.99
2023-04-29T08:03:33.908Z,99.99
2023-04-29T08:04:34.008Z,99.99
2023-04-29T08:05:34.175Z,99.99
2023-04-29T08:06:33.680Z,99.99
2023-04-29T08:07:33.653Z,99.99
2023-04-29T08:08:33.657Z,99.99
2023-04-29T08:09:33.637Z,99.99
2023-04-29T08:10:33.604Z,99.99
2023-04-29T08:11:33.624Z,99.99
2023-04-29T08:12:33.617Z,99.99
2023-04-29T08:13:33.583Z,99.99
2023-04-29T08:14:33.586Z,99.99
2023-04-29T08:15:33.585Z,99.99
2023-04-29T08:16:33.582Z,99.99
2023-04-29T08:17:33.581Z,99.99
2023-04-29T08:18:33.523Z,99.99
2023-04-29T08:19:33.530Z,99.99
2023-04-29T08:20:33.743Z,99.99
2023-04-29T08:21:33.490Z,99.99
2023-04-29T08:22:33.490Z,99.99
2023-04-29T08:23:33.479Z,99.99
2023-04-29T08:24:33.473Z,99.99
2023-04-29T08:25:33.468Z,99.99
2023-04-29T08:26:33.428Z,99.99
2023-04-29T08:27:33.457Z,99.99
2023-04-29T08:28:33.419Z,99.99
2023-04-29T08:29:33.410Z,99.99
2023-04-29T08:30:33.410Z,99.99
2023-04-29T08:31:33.447Z,99.99
2023-04-29T08:32:33.408Z,99.99
2023-04-29T08:33:33.386Z,99.99
2023-04-29T08:34:33.359Z,99.99
2023-04-29T08:35:33.342Z,99.99
2023-04-29T08:36:33.479Z,99.99
2023-04-29T08:37:33.329Z,99.99
2023-04-29T08:38:33.310Z,99.99
2023-04-29T08:39:33.306Z,99.99
2023-04-29T08:40:33.280Z,99.99
2023-04-29T08:41:33.292Z,99.99
2023-04-29T08:42:33.290Z,99.99
2023-04-29T08:43:33.246Z,99.99
2023-04-29T08:44:33.248Z,99.99
2023-04-29T08:45:33.248Z,99.99
2023-04-29T08:46:33.224Z,99.99
2023-04-29T08:47:33.571Z,99.99
2023-04-29T08:48:33.312Z,99.99
2023-04-29T08:49:33.205Z,99.88
2023-04-29T08:50:33.160Z,99.78
2023-04-29T08:51:33.185Z,99.84
2023-04-29T08:52:33.190Z,99.84
2023-04-29T08:53:33.144Z,99.99
2023-04-29T08:54:33.144Z,99.93
2023-04-29T08:55:33.121Z,99.99
2023-04-29T08:56:33.102Z,99.99
2023-04-29T08:57:33.528Z,99.99
2023-04-29T08:58:33.076Z,99.99
2023-04-29T08:59:33.066Z,99.99
2023-04-29T09:00:33.114Z,99.99
2023-04-29T09:01:33.154Z,99.93
2023-04-29T09:02:33.137Z,99.73
2023-04-29T09:03:33.188Z,99.73
2023-04-29T09:04:33.047Z,99.52
2023-04-29T09:05:33.025Z,99.22
2023-04-29T09:06:33.005Z,99.32
2023-04-29T09:07:33.660Z,99.02
2023-04-29T09:08:32.974Z,98.81
2023-04-29T09:09:32.977Z,98.71
2023-04-29T09:10:32.975Z,98.81
2023-04-29T09:11:32.955Z,98.71
2023-04-29T09:12:32.943Z,98.91
2023-04-29T09:13:32.921Z,98.71
2023-04-29T09:14:32.925Z,98.61
2023-04-29T09:15:32.938Z,98.56
2023-04-29T09:16:32.946Z,98.50
2023-04-29T09:17:32.941Z,98.20
2023-04-29T09:18:32.891Z,98.46
2023-04-29T09:19:32.855Z,98.56
2023-04-29T09:20:32.847Z,97.99
2023-04-29T09:21:32.823Z,97.79
2023-04-29T09:22:32.824Z,97.58
2023-04-29T09:23:32.827Z,97.49
2023-04-29T09:24:32.805Z,97.38
2023-04-29T09:25:32.802Z,97.17
2023-04-29T09:26:32.800Z,97.49
2023-04-29T09:27:32.785Z,97.17
2023-04-29T09:28:32.760Z,96.87
2023-04-29T09:29:32.741Z,97.28
2023-04-29T09:30:32.735Z,97.38
2023-04-29T09:31:32.808Z,96.97
2023-04-29T09:32:32.734Z,97.17
2023-04-29T09:33:32.716Z,97.49
2023-04-29T09:34:32.699Z,97.69
2023-04-29T09:35:32.692Z,97.08
2023-04-29T09:36:32.669Z,96.72
2023-04-29T09:37:32.651Z,96.83
2023-04-29T09:38:32.678Z,96.62
2023-04-29T09:39:32.661Z,96.31
2023-04-29T09:40:36.498Z,96.31
2023-04-29T09:41:32.621Z,96.42
2023-04-29T09:42:32.589Z,96.62
2023-04-29T09:43:32.615Z,96.72
2023-04-29T09:44:34.436Z,96.21
2023-04-29T09:45:32.573Z,96.01
2023-04-29T09:46:32.695Z,96.21
2023-04-29T09:47:32.561Z,96.42
2023-04-29T09:48:32.541Z,96.21
2023-04-29T09:49:32.525Z,96.11
2023-04-29T09:50:32.537Z,96.42
2023-04-29T09:51:32.501Z,95.90
2023-04-29T09:52:32.495Z,95.60
2023-04-29T09:53:32.600Z,95.80
2023-04-29T09:54:32.459Z,96.05
2023-04-29T09:55:32.463Z,96.05
2023-04-29T09:56:32.464Z,96.26
2023-04-29T09:57:32.445Z,95.64
2023-04-29T09:58:32.431Z,95.54
2023-04-29T09:59:32.434Z,95.95
2023-04-29T10:00:32.394Z,95.54
2023-04-29T10:01:32.406Z,96.11
2023-04-29T10:02:32.415Z,95.85
2023-04-29T10:03:32.462Z,96.26
2023-04-29T10:04:32.444Z,95.95
2023-04-29T10:05:32.380Z,95.75
2023-04-29T10:06:32.336Z,95.54
2023-04-29T10:07:32.350Z,96.36
2023-04-29T10:08:32.321Z,96.56
2023-04-29T10:09:32.344Z,96.36
2023-04-29T10:10:32.312Z,95.95
2023-04-29T10:11:32.277Z,96.36
2023-04-29T10:12:32.274Z,96.36
2023-04-29T10:13:32.284Z,96.36
2023-04-29T10:14:32.281Z,96.15
2023-04-29T10:15:32.245Z,96.56
2023-04-29T10:16:32.278Z,96.36
2023-04-29T10:17:32.214Z,96.36
2023-04-29T10:18:32.226Z,96.36
2023-04-29T10:19:32.221Z,96.46
2023-04-29T10:20:32.181Z,96.67
2023-04-29T10:21:32.231Z,96.97
2023-04-29T10:22:32.158Z,96.87
2023-04-29T10:23:32.142Z,96.67
2023-04-29T10:24:32.527Z,95.80
2023-04-29T10:25:32.153Z,95.29
2023-04-29T10:26:32.356Z,95.39
2023-04-29T10:27:32.114Z,94.98
2023-04-29T10:28:32.100Z,94.48
2023-04-29T10:29:32.126Z,94.68
2023-04-29T10:30:32.080Z,94.98
2023-04-29T10:31:32.111Z,95.09
2023-04-29T10:32:39.978Z,95.39
2023-04-29T10:33:32.112Z,95.19
2023-04-29T10:34:32.027Z,95.60
2023-04-29T10:35:32.035Z,96.11
2023-04-29T10:36:32.028Z,95.80
2023-04-29T10:37:31.998Z,95.80
2023-04-29T10:38:31.998Z,95.50
2023-04-29T10:39:31.989Z,94.78
2023-04-29T10:40:31.952Z,94.78
2023-04-29T10:41:31.947Z,94.17
2023-04-29T10:42:31.951Z,94.68
2023-04-29T10:43:31.930Z,94.27
2023-04-29T10:44:31.936Z,94.37
2023-04-29T10:45:31.966Z,95.09
2023-04-29T10:46:31.902Z,94.17
2023-04-29T10:47:31.904Z,93.76
2023-04-29T10:48:31.862Z,93.96
2023-04-29T10:49:31.872Z,94.17
2023-04-29T10:50:31.860Z,93.66
2023-04-29T10:51:31.829Z,92.74
2023-04-29T10:52:31.828Z,93.25
2023-04-29T10:53:31.826Z,92.33
2023-04-29T10:54:31.829Z,92.54
2023-04-29T10:55:31.799Z,92.64
2023-04-29T10:56:31.793Z,93.05
2023-04-29T10:57:31.764Z,92.94
2023-04-29T10:58:31.755Z,93.05
2023-04-29T10:59:31.776Z,93.35
2023-04-29T11:00:31.736Z,93.66
2023-04-29T11:01:31.817Z,93.35
2023-04-29T11:02:31.794Z,93.45
2023-04-29T11:03:31.750Z,92.54
2023-04-29T11:04:31.802Z,93.05
2023-04-29T11:05:31.723Z,93.05
2023-04-29T11:06:31.679Z,93.25
2023-04-29T11:07:31.667Z,93.15
2023-04-29T11:08:31.705Z,93.05
2023-04-29T11:09:31.673Z,92.23
2023-04-29T11:10:31.627Z,92.19
2023-04-29T11:11:31.626Z,91.82
2023-04-29T11:12:31.635Z,91.47
2023-04-29T11:13:31.627Z,90.80
2023-04-29T11:14:31.616Z,90.75
2023-04-29T11:15:31.573Z,90.86
2023-04-29T11:16:31.618Z,90.10
2023-04-29T11:17:31.582Z,89.59
2023-04-29T11:18:31.539Z,89.59
2023-04-29T11:19:31.540Z,89.69
2023-04-29T11:20:31.525Z,89.49
2023-04-29T11:21:31.506Z,89.18
2023-04-29T11:22:31.512Z,89.59
2023-04-29T11:23:31.496Z,88.67
2023-04-29T11:24:31.492Z,88.37
2023-04-29T11:25:31.496Z,88.17
2023-04-29T11:26:31.467Z,88.63
2023-04-29T11:27:31.450Z,87.92
2023-04-29T11:28:31.456Z,87.41
2023-04-29T11:29:31.433Z,87.61
2023-04-29T11:30:31.416Z,87.51
2023-04-29T11:31:31.435Z,87.41
2023-04-29T11:32:31.489Z,87.06
2023-04-29T11:33:31.450Z,85.94
2023-04-29T11:34:31.395Z,85.33
2023-04-29T11:35:31.367Z,85.84
2023-04-29T11:36:31.353Z,85.80
2023-04-29T11:37:31.329Z,84.98
2023-04-29T11:38:31.334Z,85.08
2023-04-29T11:39:31.320Z,83.92
2023-04-29T11:40:31.300Z,84.33
2023-04-29T11:41:31.289Z,82.66
2023-04-29T11:42:31.287Z,82.26
2023-04-29T11:43:31.262Z,83.21
2023-04-29T11:44:31.253Z,82.97
2023-04-29T11:45:31.266Z,82.46
2023-04-29T11:46:31.311Z,82.87
2023-04-29T11:47:31.363Z,81.95
2023-04-29T11:48:31.207Z,81.30
2023-04-29T11:49:31.204Z,81.60
2023-04-29T11:50:31.222Z,81.26
2023-04-29T11:51:31.172Z,81.06
2023-04-29T11:52:31.173Z,80.55
2023-04-29T11:53:31.183Z,80.35
2023-04-29T11:54:31.143Z,81.16
2023-04-29T11:55:31.174Z,80.04
2023-04-29T11:56:31.140Z,80.15
2023-04-29T11:57:31.123Z,79.43
2023-04-29T11:58:31.110Z,80.04
2023-04-29T11:59:31.121Z,79.94
2023-04-29T12:00:31.086Z,79.94
2023-04-29T12:01:31.088Z,79.33
2023-04-29T12:02:31.273Z,79.53
2023-04-29T12:03:31.228Z,79.29
2023-04-29T12:04:31.488Z,79.80
2023-04-29T12:05:31.233Z,78.38
2023-04-29T12:06:31.084Z,77.97
2023-04-29T12:07:31.103Z,78.58
2023-04-29T12:08:31.031Z,78.38
2023-04-29T12:09:31.043Z,78.58
2023-04-29T12:10:30.968Z,78.01
2023-04-29T12:11:30.986Z,78.62
2023-04-29T12:12:30.929Z,78.21
2023-04-29T12:13:30.954Z,78.72
2023-04-29T12:14:30.912Z,78.82
2023-04-29T12:15:30.898Z,78.62
2023-04-29T12:16:30.970Z,77.29
2023-04-29T12:17:30.898Z,78.41
2023-04-29T12:18:30.871Z,78.92
2023-04-29T12:19:30.881Z,78.45
2023-04-29T12:20:30.858Z,79.06
2023-04-29T12:21:30.852Z,80.38
2023-04-29T12:22:30.827Z,79.88
2023-04-29T12:23:30.817Z,79.68
2023-04-29T12:24:30.810Z,79.57
2023-04-29T12:25:30.796Z,79.77
2023-04-29T12:26:30.814Z,79.98
2023-04-29T12:27:30.774Z,79.88
2023-04-29T12:28:30.779Z,79.88
2023-04-29T12:29:30.753Z,79.88
2023-04-29T12:30:30.746Z,80.49
2023-04-29T12:31:30.804Z,81.13
2023-04-29T12:32:30.730Z,80.52
2023-04-29T12:33:30.704Z,80.83
2023-04-29T12:34:30.692Z,80.42
2023-04-29T12:35:30.683Z,80.63
2023-04-29T12:36:30.692Z,80.32
2023-04-29T12:37:30.680Z,80.93
2023-04-29T12:38:30.651Z,81.13
2023-04-29T12:39:30.644Z,81.07
2023-04-29T12:40:30.662Z,81.44
2023-04-29T12:41:30.634Z,81.27
2023-04-29T12:42:30.634Z,81.44
2023-04-29T12:43:30.633Z,81.68
2023-04-29T12:44:30.596Z,81.74
2023-04-29T12:45:30.593Z,81.44
2023-04-29T12:46:30.636Z,81.13
2023-04-29T12:47:30.595Z,80.83
2023-04-29T12:48:32.987Z,80.69
2023-04-29T12:49:30.520Z,80.04
2023-04-29T12:50:30.547Z,79.84
2023-04-29T12:51:30.526Z,79.94
2023-04-29T12:52:30.496Z,79.53
2023-04-29T12:53:30.503Z,79.09
2023-04-29T12:54:30.475Z,78.68
2023-04-29T12:55:30.471Z,77.73
2023-04-29T12:56:30.474Z,77.43
2023-04-29T12:57:30.429Z,76.68
2023-04-29T12:58:30.542Z,76.44
2023-04-29T12:59:30.453Z,75.93
2023-04-29T13:00:30.434Z,75.43
2023-04-29T13:01:30.453Z,75.02
2023-04-29T13:02:30.815Z,74.98
2023-04-29T13:03:30.666Z,74.48
2023-04-29T13:04:30.488Z,74.78
2023-04-29T13:05:30.333Z,73.46
2023-04-29T13:06:30.347Z,73.06
2023-04-29T13:07:30.325Z,73.57
2023-04-29T13:08:30.327Z,73.66
2023-04-29T13:09:30.295Z,72.96
2023-04-29T13:10:30.309Z,72.92
2023-04-29T13:11:34.018Z,71.77
2023-04-29T13:12:30.287Z,71.30
2023-04-29T13:13:30.256Z,71.91
2023-04-29T13:14:30.263Z,72.34
2023-04-29T13:15:30.245Z,72.75
2023-04-29T13:16:30.274Z,73.46
2023-04-29T13:17:30.233Z,72.89
2023-04-29T13:18:31.349Z,73.19
2023-04-29T13:19:44.027Z,73.19
2023-04-29T13:20:30.202Z,72.69
2023-04-29T13:21:30.176Z,71.73
2023-04-29T13:22:30.165Z,70.92
2023-04-29T13:23:30.147Z,71.80
2023-04-29T13:24:30.136Z,70.69
2023-04-29T13:25:30.124Z,70.59
2023-04-29T13:26:30.145Z,71.20
2023-04-29T13:27:30.101Z,70.18
2023-04-29T13:28:30.089Z,70.39
2023-04-29T13:29:30.365Z,71.00
2023-04-29T13:30:30.071Z,70.79
2023-04-29T13:31:30.139Z,70.89
2023-04-29T13:32:43.292Z,70.59
2023-04-29T13:33:30.069Z,71.09
2023-04-29T13:34:30.034Z,71.20
2023-04-29T13:35:30.017Z,70.18
2023-04-29T13:36:30.033Z,70.39
2023-04-29T13:37:29.979Z,70.89
2023-04-29T13:38:30.000Z,70.21
2023-04-29T13:39:29.982Z,70.52
2023-04-29T13:40:30.801Z,70.83
2023-04-29T13:41:34.485Z,70.83
2023-04-29T13:42:29.936Z,70.52
2023-04-29T13:43:37.617Z,71.03
2023-04-29T13:44:36.131Z,70.72
2023-04-29T13:45:30.576Z,69.91
2023-04-29T13:46:31.422Z,70.18
2023-04-29T13:47:31.564Z,69.07
2023-04-29T13:49:01.650Z,69.64
2023-04-29T13:49:58.595Z,68.93
2023-04-29T13:51:56.289Z,68.90
2023-04-29T13:53:10.747Z,67.38
2023-04-29T13:57:14.884Z,63.71
2023-04-29T13:59:42.712Z,63.87
2023-04-29T14:02:30.056Z,65.19
2023-04-29T14:03:31.434Z,65.39
2023-04-29T14:04:29.896Z,65.29
2023-04-29T14:05:29.766Z,65.42
2023-04-29T14:06:29.680Z,65.45
2023-04-29T14:07:29.666Z,65.76
2023-04-29T14:08:29.655Z,66.40
2023-04-29T14:09:29.643Z,66.09
2023-04-29T14:10:29.638Z,66.80
2023-04-29T14:11:29.614Z,67.11
2023-04-29T14:12:29.652Z,66.91
2023-04-29T14:13:29.704Z,67.14
2023-04-29T14:14:29.616Z,67.24
2023-04-29T14:15:29.571Z,67.95
2023-04-29T14:16:29.669Z,68.35
2023-04-29T14:17:29.593Z,68.05
2023-04-29T14:18:29.568Z,66.94
2023-04-29T14:19:29.537Z,67.14
2023-04-29T14:20:29.532Z,67.38
2023-04-29T14:21:29.509Z,67.58
2023-04-29T14:22:29.514Z,68.29
2023-04-29T14:23:29.514Z,67.78
2023-04-29T14:24:29.480Z,67.98
2023-04-29T14:25:30.486Z,68.08
2023-04-29T14:26:29.589Z,67.98
2023-04-29T14:27:29.448Z,68.39
2023-04-29T14:28:29.445Z,68.59
2023-04-29T14:29:29.413Z,68.12
2023-04-29T14:30:29.460Z,68.29
2023-04-29T14:31:29.594Z,68.59
2023-04-29T14:32:29.414Z,68.05
2023-04-29T14:33:29.406Z,67.75
2023-04-29T14:34:29.377Z,68.15
2023-04-29T14:35:29.344Z,67.41
2023-04-29T14:36:29.375Z,66.91
2023-04-29T14:37:29.336Z,68.02
2023-04-29T14:38:29.324Z,67.11
2023-04-29T14:39:29.317Z,66.80
2023-04-29T14:40:29.316Z,66.37
2023-04-29T14:41:29.287Z,65.83
2023-04-29T14:42:29.282Z,65.19
2023-04-29T14:43:29.287Z,63.95
2023-04-29T14:44:29.256Z,63.41
2023-04-29T14:45:29.248Z,61.66
2023-04-29T14:46:29.268Z,61.46
2023-04-29T14:47:29.277Z,61.90
2023-04-29T14:48:29.271Z,62.30
2023-04-29T14:49:31.517Z,61.20
2023-04-29T14:50:29.177Z,58.56
2023-04-29T14:51:29.168Z,57.10
2023-04-29T14:52:29.175Z,55.49
2023-04-29T14:53:29.171Z,54.96
2023-04-29T14:54:29.166Z,55.06
2023-04-29T14:55:30.173Z,54.66
2023-04-29T14:56:29.129Z,54.08
2023-04-29T14:57:29.098Z,52.94
2023-04-29T14:58:29.113Z,52.19
2023-04-29T14:59:29.082Z,50.06
2023-04-29T15:00:29.073Z,50.46
2023-04-29T15:01:31.908Z,50.38
2023-04-29T15:02:29.102Z,50.59
2023-04-29T15:03:29.214Z,50.53
2023-04-29T15:04:29.095Z,52.29
2023-04-29T15:05:29.022Z,53.78
2023-04-29T15:06:29.058Z,55.04
2023-04-29T15:07:31.156Z,53.72
2023-04-29T15:08:28.995Z,55.59
2023-04-29T15:09:29.008Z,55.59
2023-04-29T15:10:28.971Z,55.72
2023-04-29T15:11:28.956Z,55.65
2023-04-29T15:12:28.957Z,56.65
2023-04-29T15:13:30.066Z,56.35
2023-04-29T15:14:28.916Z,56.07
2023-04-29T15:15:28.929Z,56.38
2023-04-29T15:16:29.009Z,56.71
2023-04-29T15:17:28.909Z,57.52
2023-04-29T15:18:28.877Z,56.84
2023-04-29T15:19:28.870Z,57.37
2023-04-29T15:20:28.894Z,58.07
2023-04-29T15:21:28.842Z,58.71
2023-04-29T15:22:28.852Z,58.71
2023-04-29T15:23:28.810Z,58.94
2023-04-29T15:24:28.817Z,60.16
2023-04-29T15:25:28.797Z,60.16
2023-04-29T15:26:28.806Z,60.86
2023-04-29T15:27:28.780Z,60.66
2023-04-29T15:28:28.768Z,59.75
2023-04-29T15:29:29.086Z,59.95
2023-04-29T15:30:28.756Z,59.75
2023-04-29T15:31:30.650Z,60.69
2023-04-29T15:32:28.778Z,61.20
2023-04-29T15:33:28.697Z,61.40
2023-04-29T15:34:28.723Z,62.11
2023-04-29T15:35:28.685Z,62.62
2023-04-29T15:36:28.693Z,62.34
2023-04-29T15:37:28.709Z,62.11
2023-04-29T15:38:28.649Z,63.46
2023-04-29T15:39:28.634Z,62.85
2023-04-29T15:40:28.691Z,62.14
2023-04-29T15:41:28.619Z,62.24
2023-04-29T15:42:28.632Z,62.48
2023-04-29T15:43:28.597Z,62.57
2023-04-29T15:44:28.585Z,63.08
2023-04-29T15:45:28.644Z,63.49
2023-04-29T15:46:28.569Z,63.29
2023-04-29T15:47:28.731Z,63.59
2023-04-29T15:48:28.566Z,63.29
2023-04-29T15:49:28.549Z,63.29
2023-04-29T15:50:28.535Z,63.49
2023-04-29T15:51:28.533Z,63.96
2023-04-29T15:52:28.520Z,63.15
2023-04-29T15:53:28.479Z,62.78
2023-04-29T15:54:28.484Z,63.69
2023-04-29T15:55:28.491Z,63.18
2023-04-29T15:56:28.477Z,62.98
2023-04-29T15:57:28.436Z,63.08
2023-04-29T15:58:28.447Z,63.08
2023-04-29T15:59:28.445Z,63.18
2023-04-29T16:00:28.422Z,63.39
2023-04-29T16:01:28.488Z,63.39
2023-04-29T16:02:28.410Z,63.49
2023-04-29T16:03:28.419Z,63.49
2023-04-29T16:04:28.363Z,63.59
2023-04-29T16:05:28.354Z,63.29
2023-04-29T16:06:28.366Z,63.69
2023-04-29T16:07:28.333Z,63.32
2023-04-29T16:08:28.315Z,63.32
2023-04-29T16:09:28.317Z,63.92
2023-04-29T16:10:28.404Z,64.13
2023-04-29T16:11:28.292Z,64.43
2023-04-29T16:12:28.291Z,64.03
2023-04-29T16:13:28.276Z,63.82
2023-04-29T16:14:28.266Z,64.03
2023-04-29T16:15:28.238Z,64.64
2023-04-29T16:16:28.298Z,64.64
2023-04-29T16:17:28.235Z,64.73
2023-04-29T16:18:28.214Z,64.84
2023-04-29T16:19:28.246Z,65.34
2023-04-29T16:20:28.203Z,65.95
2023-04-29T16:21:28.176Z,65.55
2023-04-29T16:22:28.624Z,65.95
2023-04-29T16:23:28.169Z,65.85
2023-04-29T16:24:28.145Z,66.05
2023-04-29T16:25:28.119Z,66.26
2023-04-29T16:26:28.117Z,66.66
2023-04-29T16:27:28.121Z,66.46
2023-04-29T16:28:28.099Z,66.66
2023-04-29T16:29:28.078Z,66.60
2023-04-29T16:30:28.092Z,66.77
2023-04-29T16:31:28.110Z,66.29
2023-04-29T16:32:28.058Z,66.39
2023-04-29T16:33:28.070Z,66.69
2023-04-29T16:34:28.110Z,67.20
2023-04-29T16:35:28.053Z,67.41
2023-04-29T16:36:28.024Z,67.10
2023-04-29T16:37:28.005Z,67.30
2023-04-29T16:38:28.013Z,67.61
2023-04-29T16:39:27.978Z,67.10
2023-04-29T16:40:27.965Z,66.80
2023-04-29T16:41:27.948Z,67.00
2023-04-29T16:42:27.952Z,67.20
2023-04-29T16:43:27.965Z,66.97
2023-04-29T16:44:27.924Z,67.38
2023-04-29T16:45:27.930Z,67.38
2023-04-29T16:46:27.957Z,66.77
2023-04-29T16:47:27.914Z,67.07
2023-04-29T16:48:27.909Z,67.27
2023-04-29T16:49:27.878Z,67.07
2023-04-29T16:50:27.865Z,66.86
2023-04-29T16:51:27.846Z,66.83
2023-04-29T16:52:27.834Z,65.18
2023-04-29T16:53:27.830Z,64.51
2023-04-29T16:54:27.828Z,64.01
2023-04-29T16:55:27.805Z,62.76
2023-04-29T16:56:27.799Z,62.81
2023-04-29T16:57:27.784Z,60.14
2023-04-29T16:58:27.760Z,57.84
2023-04-29T16:59:27.769Z,56.90
2023-04-29T17:00:27.781Z,56.15